Terminal Aerodrome Forecast
Issued by NWS Knoxville/Tri Cities, TN

Home | Current Version | Previous Version | Text Only | Print | Product List | Glossary On
Versions: 1 2 3 4 5 6 7 8 9 10 11 12 13 14 15 16
000
FTUS44 KMRX 281120
TAFTRI
TAF
KTRI 281120Z 2812/2912 00000KT 4SM -SHRA BR OVC030
     FM281400 22002KT 4SM -SHRA BR BKN025
     FM281800 23005KT 5SM -SHRA BR VCTS OVC025CB
     FM282100 25007KT 4SM -SHRA BR VCTS BKN025CB OVC050
     FM290100 25005KT 4SM -SHRA BR OVC020
     FM290700 26005KT 2SM BR OVC007=

USA.gov is the U.S. government's official web portal to all federal, state and local government web resources and services.